sensor_id;sensor_type;location;lat;lon;timestamp;temperature;humidity
12426;DHT22;6277;49.824;9.562;2023-04-24T00:00:35;13.30;79.70
12426;DHT22;6277;49.824;9.562;2023-04-24T00:03:01;13.20;79.60
12426;DHT22;6277;49.824;9.562;2023-04-24T00:05:28;13.20;79.60
12426;DHT22;6277;49.824;9.562;2023-04-24T00:07:53;13.20;79.70
12426;DHT22;6277;49.824;9.562;2023-04-24T00:10:20;13.10;79.70
12426;DHT22;6277;49.824;9.562;2023-04-24T00:12:46;13.10;79.70
12426;DHT22;6277;49.824;9.562;2023-04-24T00:15:12;13.00;79.80
12426;DHT22;6277;49.824;9.562;2023-04-24T00:17:37;13.00;80.00
12426;DHT22;6277;49.824;9.562;2023-04-24T00:20:04;13.00;80.00
12426;DHT22;6277;49.824;9.562;2023-04-24T00:22:30;12.90;80.10
12426;DHT22;6277;49.824;9.562;2023-04-24T00:24:56;12.90;80.10
12426;DHT22;6277;49.824;9.562;2023-04-24T00:27:22;12.80;80.10
12426;DHT22;6277;49.824;9.562;2023-04-24T00:29:47;12.90;80.10
12426;DHT22;6277;49.824;9.562;2023-04-24T00:32:14;12.80;80.20
12426;DHT22;6277;49.824;9.562;2023-04-24T00:34:39;12.80;80.40
12426;DHT22;6277;49.824;9.562;2023-04-24T00:37:05;12.80;80.50
12426;DHT22;6277;49.824;9.562;2023-04-24T00:39:31;12.80;80.70
12426;DHT22;6277;49.824;9.562;2023-04-24T00:41:57;12.80;80.90
12426;DHT22;6277;49.824;9.562;2023-04-24T00:44:23;12.80;81.00
12426;DHT22;6277;49.824;9.562;2023-04-24T00:46:49;12.80;81.10
12426;DHT22;6277;49.824;9.562;2023-04-24T00:49:21;12.80;81.30
12426;DHT22;6277;49.824;9.562;2023-04-24T00:51:46;12.80;81.40
12426;DHT22;6277;49.824;9.562;2023-04-24T00:54:13;12.90;81.60
12426;DHT22;6277;49.824;9.562;2023-04-24T00:56:39;12.90;81.70
12426;DHT22;6277;49.824;9.562;2023-04-24T00:59:05;13.00;81.90
12426;DHT22;6277;49.824;9.562;2023-04-24T01:01:31;12.90;81.80
12426;DHT22;6277;49.824;9.562;2023-04-24T01:03:58;13.00;82.00
12426;DHT22;6277;49.824;9.562;2023-04-24T01:06:28;13.10;82.00
12426;DHT22;6277;49.824;9.562;2023-04-24T01:08:54;13.10;82.20
12426;DHT22;6277;49.824;9.562;2023-04-24T01:11:21;13.10;82.00
12426;DHT22;6277;49.824;9.562;2023-04-24T01:13:47;13.20;82.10
12426;DHT22;6277;49.824;9.562;2023-04-24T01:16:14;13.20;82.10
12426;DHT22;6277;49.824;9.562;2023-04-24T01:18:40;13.20;82.10
12426;DHT22;6277;49.824;9.562;2023-04-24T01:21:08;13.20;82.10
12426;DHT22;6277;49.824;9.562;2023-04-24T01:23:34;13.20;82.30
12426;DHT22;6277;49.824;9.562;2023-04-24T01:26:00;13.20;82.20
12426;DHT22;6277;49.824;9.562;2023-04-24T01:28:26;13.30;82.30
12426;DHT22;6277;49.824;9.562;2023-04-24T01:30:52;13.30;82.40
12426;DHT22;6277;49.824;9.562;2023-04-24T01:33:18;13.30;82.50
12426;DHT22;6277;49.824;9.562;2023-04-24T01:35:43;13.30;82.30
12426;DHT22;6277;49.824;9.562;2023-04-24T01:38:09;13.30;82.40
12426;DHT22;6277;49.824;9.562;2023-04-24T01:40:35;13.30;82.30
12426;DHT22;6277;49.824;9.562;2023-04-24T01:43:00;13.40;82.50
12426;DHT22;6277;49.824;9.562;2023-04-24T01:45:26;13.40;82.50
12426;DHT22;6277;49.824;9.562;2023-04-24T01:47:51;13.40;82.50
12426;DHT22;6277;49.824;9.562;2023-04-24T01:50:17;13.40;82.60
12426;DHT22;6277;49.824;9.562;2023-04-24T01:52:43;13.40;82.60
12426;DHT22;6277;49.824;9.562;2023-04-24T01:55:09;13.40;82.50
12426;DHT22;6277;49.824;9.562;2023-04-24T01:57:35;13.40;82.50
12426;DHT22;6277;49.824;9.562;2023-04-24T02:00:01;13.40;82.60
12426;DHT22;6277;49.824;9.562;2023-04-24T02:02:29;13.40;82.60
12426;DHT22;6277;49.824;9.562;2023-04-24T02:04:55;13.50;82.70
12426;DHT22;6277;49.824;9.562;2023-04-24T02:07:21;13.50;82.80
12426;DHT22;6277;49.824;9.562;2023-04-24T02:09:47;13.50;82.90
12426;DHT22;6277;49.824;9.562;2023-04-24T02:12:12;13.50;82.90
12426;DHT22;6277;49.824;9.562;2023-04-24T02:14:38;13.50;83.00
12426;DHT22;6277;49.824;9.562;2023-04-24T02:17:04;13.50;82.90
12426;DHT22;6277;49.824;9.562;2023-04-24T02:19:30;13.50;82.90
12426;DHT22;6277;49.824;9.562;2023-04-24T02:21:55;13.50;82.90
12426;DHT22;6277;49.824;9.562;2023-04-24T02:24:21;13.50;82.90
12426;DHT22;6277;49.824;9.562;2023-04-24T02:26:46;13.50;82.90
12426;DHT22;6277;49.824;9.562;2023-04-24T02:29:12;13.50;83.00
12426;DHT22;6277;49.824;9.562;2023-04-24T02:31:38;13.50;83.10
12426;DHT22;6277;49.824;9.562;2023-04-24T02:34:03;13.50;83.10
12426;DHT22;6277;49.824;9.562;2023-04-24T02:36:29;13.50;83.30
12426;DHT22;6277;49.824;9.562;2023-04-24T02:38:55;13.50;83.30
12426;DHT22;6277;49.824;9.562;2023-04-24T02:41:21;13.50;83.30
12426;DHT22;6277;49.824;9.562;2023-04-24T02:43:46;13.60;83.30
12426;DHT22;6277;49.824;9.562;2023-04-24T02:46:12;13.60;83.40
12426;DHT22;6277;49.824;9.562;2023-04-24T02:48:37;13.60;83.40
12426;DHT22;6277;49.824;9.562;2023-04-24T02:51:03;13.60;83.50
12426;DHT22;6277;49.824;9.562;2023-04-24T02:53:29;13.60;83.40
12426;DHT22;6277;49.824;9.562;2023-04-24T02:55:56;13.60;83.40
12426;DHT22;6277;49.824;9.562;2023-04-24T02:58:21;13.60;83.40
12426;DHT22;6277;49.824;9.562;2023-04-24T03:00:47;13.60;83.20
12426;DHT22;6277;49.824;9.562;2023-04-24T03:03:13;13.60;83.00
12426;DHT22;6277;49.824;9.562;2023-04-24T03:05:38;13.60;83.10
12426;DHT22;6277;49.824;9.562;2023-04-24T03:08:04;13.60;83.20
12426;DHT22;6277;49.824;9.562;2023-04-24T03:10:30;13.60;83.30
12426;DHT22;6277;49.824;9.562;2023-04-24T03:12:55;13.60;83.40
12426;DHT22;6277;49.824;9.562;2023-04-24T03:15:21;13.60;83.50
12426;DHT22;6277;49.824;9.562;2023-04-24T03:17:46;13.60;83.60
12426;DHT22;6277;49.824;9.562;2023-04-24T03:20:12;13.60;83.70
12426;DHT22;6277;49.824;9.562;2023-04-24T03:22:38;13.60;83.70
12426;DHT22;6277;49.824;9.562;2023-04-24T03:25:04;13.60;83.60
12426;DHT22;6277;49.824;9.562;2023-04-24T03:27:30;13.60;83.60
12426;DHT22;6277;49.824;9.562;2023-04-24T03:29:55;13.60;83.50
12426;DHT22;6277;49.824;9.562;2023-04-24T03:32:22;13.60;83.40
12426;DHT22;6277;49.824;9.562;2023-04-24T03:34:48;13.60;83.40
12426;DHT22;6277;49.824;9.562;2023-04-24T03:37:14;13.50;83.30
12426;DHT22;6277;49.824;9.562;2023-04-24T03:39:40;13.50;83.20
12426;DHT22;6277;49.824;9.562;2023-04-24T03:42:05;13.50;83.10
12426;DHT22;6277;49.824;9.562;2023-04-24T03:44:31;13.50;83.00
12426;DHT22;6277;49.824;9.562;2023-04-24T03:46:58;13.40;83.00
12426;DHT22;6277;49.824;9.562;2023-04-24T03:49:23;13.40;83.10
12426;DHT22;6277;49.824;9.562;2023-04-24T03:51:49;13.40;83.20
12426;DHT22;6277;49.824;9.562;2023-04-24T03:54:14;13.30;83.30
12426;DHT22;6277;49.824;9.562;2023-04-24T03:56:40;13.30;83.50
12426;DHT22;6277;49.824;9.562;2023-04-24T03:59:05;13.40;83.60
12426;DHT22;6277;49.824;9.562;2023-04-24T04:01:31;13.30;83.70
12426;DHT22;6277;49.824;9.562;2023-04-24T04:03:56;13.30;83.80
12426;DHT22;6277;49.824;9.562;2023-04-24T04:06:22;13.30;83.90
12426;DHT22;6277;49.824;9.562;2023-04-24T04:08:47;13.30;84.00
12426;DHT22;6277;49.824;9.562;2023-04-24T04:11:13;13.30;84.10
12426;DHT22;6277;49.824;9.562;2023-04-24T04:13:38;13.30;84.20
12426;DHT22;6277;49.824;9.562;2023-04-24T04:16:04;13.30;84.20
12426;DHT22;6277;49.824;9.562;2023-04-24T04:18:30;13.30;84.10
12426;DHT22;6277;49.824;9.562;2023-04-24T04:20:55;13.20;84.00
12426;DHT22;6277;49.824;9.562;2023-04-24T04:23:22;13.20;83.90
12426;DHT22;6277;49.824;9.562;2023-04-24T04:25:48;13.20;83.70
12426;DHT22;6277;49.824;9.562;2023-04-24T04:28:13;13.10;83.50
12426;DHT22;6277;49.824;9.562;2023-04-24T04:30:40;13.00;83.30
12426;DHT22;6277;49.824;9.562;2023-04-24T04:33:06;12.90;83.30
12426;DHT22;6277;49.824;9.562;2023-04-24T04:35:33;12.90;83.30
12426;DHT22;6277;49.824;9.562;2023-04-24T04:37:59;12.80;83.60
12426;DHT22;6277;49.824;9.562;2023-04-24T04:40:24;12.80;83.80
12426;DHT22;6277;49.824;9.562;2023-04-24T04:42:50;12.70;83.90
12426;DHT22;6277;49.824;9.562;2023-04-24T04:45:18;12.70;84.20
12426;DHT22;6277;49.824;9.562;2023-04-24T04:47:44;12.60;84.20
12426;DHT22;6277;49.824;9.562;2023-04-24T04:50:10;12.60;84.30
12426;DHT22;6277;49.824;9.562;2023-04-24T04:52:35;12.50;84.20
12426;DHT22;6277;49.824;9.562;2023-04-24T04:55:01;12.50;84.30
12426;DHT22;6277;49.824;9.562;2023-04-24T04:57:27;12.50;84.40
12426;DHT22;6277;49.824;9.562;2023-04-24T04:59:52;12.50;84.50
12426;DHT22;6277;49.824;9.562;2023-04-24T05:02:18;12.50;84.60
12426;DHT22;6277;49.824;9.562;2023-04-24T05:04:44;12.50;84.50
12426;DHT22;6277;49.824;9.562;2023-04-24T05:07:10;12.50;84.50
12426;DHT22;6277;49.824;9.562;2023-04-24T05:09:36;12.40;84.50
12426;DHT22;6277;49.824;9.562;2023-04-24T05:12:01;12.40;84.50
12426;DHT22;6277;49.824;9.562;2023-04-24T05:14:27;12.40;84.60
12426;DHT22;6277;49.824;9.562;2023-04-24T05:16:53;12.40;84.60
12426;DHT22;6277;49.824;9.562;2023-04-24T05:19:18;12.40;84.40
12426;DHT22;6277;49.824;9.562;2023-04-24T05:21:44;12.40;84.10
12426;DHT22;6277;49.824;9.562;2023-04-24T05:24:09;12.30;83.90
12426;DHT22;6277;49.824;9.562;2023-04-24T05:26:35;12.30;83.80
12426;DHT22;6277;49.824;9.562;2023-04-24T05:29:01;12.20;83.60
12426;DHT22;6277;49.824;9.562;2023-04-24T05:31:26;12.20;83.60
12426;DHT22;6277;49.824;9.562;2023-04-24T05:33:52;12.10;83.50
12426;DHT22;6277;49.824;9.562;2023-04-24T05:36:17;12.00;83.60
12426;DHT22;6277;49.824;9.562;2023-04-24T05:38:43;12.00;83.70
12426;DHT22;6277;49.824;9.562;2023-04-24T05:41:08;12.00;83.80
12426;DHT22;6277;49.824;9.562;2023-04-24T05:43:34;11.90;83.80
12426;DHT22;6277;49.824;9.562;2023-04-24T05:45:59;11.90;83.90
12426;DHT22;6277;49.824;9.562;2023-04-24T05:48:25;11.90;84.00
12426;DHT22;6277;49.824;9.562;2023-04-24T05:50:51;11.80;84.00
12426;DHT22;6277;49.824;9.562;2023-04-24T05:53:18;11.80;84.10
12426;DHT22;6277;49.824;9.562;2023-04-24T05:55:43;11.80;84.20
12426;DHT22;6277;49.824;9.562;2023-04-24T05:58:09;11.80;84.10
12426;DHT22;6277;49.824;9.562;2023-04-24T06:00:35;11.80;84.20
12426;DHT22;6277;49.824;9.562;2023-04-24T06:03:01;11.80;84.20
12426;DHT22;6277;49.824;9.562;2023-04-24T06:05:28;11.70;84.20
12426;DHT22;6277;49.824;9.562;2023-04-24T06:07:55;11.70;84.30
12426;DHT22;6277;49.824;9.562;2023-04-24T06:10:20;11.70;84.40
12426;DHT22;6277;49.824;9.562;2023-04-24T06:12:46;11.80;84.60
12426;DHT22;6277;49.824;9.562;2023-04-24T06:15:11;11.80;84.60
12426;DHT22;6277;49.824;9.562;2023-04-24T06:17:38;11.80;84.70
12426;DHT22;6277;49.824;9.562;2023-04-24T06:20:04;11.80;84.60
12426;DHT22;6277;49.824;9.562;2023-04-24T06:22:31;11.90;84.80
12426;DHT22;6277;49.824;9.562;2023-04-24T06:24:57;11.90;84.90
12426;DHT22;6277;49.824;9.562;2023-04-24T06:27:22;11.90;84.80
12426;DHT22;6277;49.824;9.562;2023-04-24T06:29:48;11.90;84.80
12426;DHT22;6277;49.824;9.562;2023-04-24T06:32:22;12.00;84.80
12426;DHT22;6277;49.824;9.562;2023-04-24T06:34:48;12.00;84.60
12426;DHT22;6277;49.824;9.562;2023-04-24T06:37:14;12.10;84.50
12426;DHT22;6277;49.824;9.562;2023-04-24T06:39:41;12.10;84.30
12426;DHT22;6277;49.824;9.562;2023-04-24T06:42:07;12.20;84.40
12426;DHT22;6277;49.824;9.562;2023-04-24T06:44:35;12.20;84.30
12426;DHT22;6277;49.824;9.562;2023-04-24T06:47:14;12.30;84.10
12426;DHT22;6277;49.824;9.562;2023-04-24T06:49:41;12.30;83.80
12426;DHT22;6277;49.824;9.562;2023-04-24T06:52:07;12.40;84.70
12426;DHT22;6277;49.824;9.562;2023-04-24T06:54:33;12.40;83.80
12426;DHT22;6277;49.824;9.562;2023-04-24T06:56:59;12.50;83.70
12426;DHT22;6277;49.824;9.562;2023-04-24T06:59:29;12.50;83.90
12426;DHT22;6277;49.824;9.562;2023-04-24T07:01:55;12.60;83.80
12426;DHT22;6277;49.824;9.562;2023-04-24T07:04:20;12.70;83.90
12426;DHT22;6277;49.824;9.562;2023-04-24T07:06:47;12.70;83.60
12426;DHT22;6277;49.824;9.562;2023-04-24T07:09:14;12.80;83.50
12426;DHT22;6277;49.824;9.562;2023-04-24T07:11:41;12.90;83.70
12426;DHT22;6277;49.824;9.562;2023-04-24T07:14:07;13.00;84.10
12426;DHT22;6277;49.824;9.562;2023-04-24T07:16:33;13.10;84.40
12426;DHT22;6277;49.824;9.562;2023-04-24T07:18:58;13.20;84.70
12426;DHT22;6277;49.824;9.562;2023-04-24T07:21:24;13.40;84.80
12426;DHT22;6277;49.824;9.562;2023-04-24T07:23:50;13.50;84.30
12426;DHT22;6277;49.824;9.562;2023-04-24T07:26:16;13.80;84.70
12426;DHT22;6277;49.824;9.562;2023-04-24T07:28:42;13.90;83.90
12426;DHT22;6277;49.824;9.562;2023-04-24T07:31:08;14.10;83.30
12426;DHT22;6277;49.824;9.562;2023-04-24T07:33:34;14.30;82.10
12426;DHT22;6277;49.824;9.562;2023-04-24T07:35:59;14.40;81.60
12426;DHT22;6277;49.824;9.562;2023-04-24T07:38:25;14.50;80.90
12426;DHT22;6277;49.824;9.562;2023-04-24T07:40:51;14.60;80.30
12426;DHT22;6277;49.824;9.562;2023-04-24T07:43:17;14.70;80.20
12426;DHT22;6277;49.824;9.562;2023-04-24T07:45:43;14.80;80.30
12426;DHT22;6277;49.824;9.562;2023-04-24T07:48:09;14.80;78.90
12426;DHT22;6277;49.824;9.562;2023-04-24T07:50:34;14.90;78.10
12426;DHT22;6277;49.824;9.562;2023-04-24T07:53:01;14.90;77.80
12426;DHT22;6277;49.824;9.562;2023-04-24T07:55:27;14.90;77.80
12426;DHT22;6277;49.824;9.562;2023-04-24T07:57:52;14.90;77.60
12426;DHT22;6277;49.824;9.562;2023-04-24T08:00:18;14.90;77.60
12426;DHT22;6277;49.824;9.562;2023-04-24T08:02:44;15.00;78.20
12426;DHT22;6277;49.824;9.562;2023-04-24T08:05:09;15.00;77.30
12426;DHT22;6277;49.824;9.562;2023-04-24T08:07:35;15.10;76.70
12426;DHT22;6277;49.824;9.562;2023-04-24T08:10:01;15.10;76.70
12426;DHT22;6277;49.824;9.562;2023-04-24T08:12:28;15.10;76.50
12426;DHT22;6277;49.824;9.562;2023-04-24T08:14:54;15.20;75.20
12426;DHT22;6277;49.824;9.562;2023-04-24T08:17:20;15.20;75.40
12426;DHT22;6277;49.824;9.562;2023-04-24T08:19:45;15.20;75.40
12426;DHT22;6277;49.824;9.562;2023-04-24T08:22:14;15.20;75.00
12426;DHT22;6277;49.824;9.562;2023-04-24T08:24:40;15.20;74.70
12426;DHT22;6277;49.824;9.562;2023-04-24T08:27:06;15.20;74.20
12426;DHT22;6277;49.824;9.562;2023-04-24T08:29:32;15.10;73.60
12426;DHT22;6277;49.824;9.562;2023-04-24T08:31:57;15.10;73.80
12426;DHT22;6277;49.824;9.562;2023-04-24T08:34:23;15.00;74.10
12426;DHT22;6277;49.824;9.562;2023-04-24T08:36:48;15.00;73.80
12426;DHT22;6277;49.824;9.562;2023-04-24T08:39:14;15.00;73.20
12426;DHT22;6277;49.824;9.562;2023-04-24T08:41:42;15.10;74.30
12426;DHT22;6277;49.824;9.562;2023-04-24T08:44:11;15.10;73.10
12426;DHT22;6277;49.824;9.562;2023-04-24T08:46:39;15.20;74.60
12426;DHT22;6277;49.824;9.562;2023-04-24T08:49:05;15.40;74.40
12426;DHT22;6277;49.824;9.562;2023-04-24T08:51:31;15.50;75.90
12426;DHT22;6277;49.824;9.562;2023-04-24T08:53:57;15.70;74.80
12426;DHT22;6277;49.824;9.562;2023-04-24T08:56:23;15.80;73.70
12426;DHT22;6277;49.824;9.562;2023-04-24T08:58:53;15.90;72.80
12426;DHT22;6277;49.824;9.562;2023-04-24T09:01:20;16.00;72.00
12426;DHT22;6277;49.824;9.562;2023-04-24T09:03:48;16.00;71.70
12426;DHT22;6277;49.824;9.562;2023-04-24T09:06:14;16.00;70.70
12426;DHT22;6277;49.824;9.562;2023-04-24T09:08:42;16.00;70.20
12426;DHT22;6277;49.824;9.562;2023-04-24T09:11:09;16.00;70.30
12426;DHT22;6277;49.824;9.562;2023-04-24T09:13:35;16.00;70.90
12426;DHT22;6277;49.824;9.562;2023-04-24T09:16:01;16.00;70.70
12426;DHT22;6277;49.824;9.562;2023-04-24T09:18:26;16.10;70.10
12426;DHT22;6277;49.824;9.562;2023-04-24T09:21:00;16.10;70.20
12426;DHT22;6277;49.824;9.562;2023-04-24T09:23:30;16.10;68.40
12426;DHT22;6277;49.824;9.562;2023-04-24T09:25:57;16.10;68.00
12426;DHT22;6277;49.824;9.562;2023-04-24T09:28:40;16.10;69.60
12426;DHT22;6277;49.824;9.562;2023-04-24T09:31:08;16.10;69.00
12426;DHT22;6277;49.824;9.562;2023-04-24T09:33:34;16.00;69.30
12426;DHT22;6277;49.824;9.562;2023-04-24T09:36:00;16.10;69.60
12426;DHT22;6277;49.824;9.562;2023-04-24T09:38:38;16.10;68.60
12426;DHT22;6277;49.824;9.562;2023-04-24T09:41:08;16.10;68.00
12426;DHT22;6277;49.824;9.562;2023-04-24T09:43:34;16.10;67.70
12426;DHT22;6277;49.824;9.562;2023-04-24T09:46:07;16.00;66.90
12426;DHT22;6277;49.824;9.562;2023-04-24T09:48:37;15.90;65.40
12426;DHT22;6277;49.824;9.562;2023-04-24T09:51:04;15.80;66.90
12426;DHT22;6277;49.824;9.562;2023-04-24T09:53:32;15.70;67.00
12426;DHT22;6277;49.824;9.562;2023-04-24T09:56:11;15.70;66.90
12426;DHT22;6277;49.824;9.562;2023-04-24T09:58:38;15.70;65.10
12426;DHT22;6277;49.824;9.562;2023-04-24T10:01:04;15.70;67.30
12426;DHT22;6277;49.824;9.562;2023-04-24T10:03:30;15.70;67.10
12426;DHT22;6277;49.824;9.562;2023-04-24T10:06:00;15.80;67.40
12426;DHT22;6277;49.824;9.562;2023-04-24T10:08:26;15.80;66.30
12426;DHT22;6277;49.824;9.562;2023-04-24T10:10:52;15.90;65.70
12426;DHT22;6277;49.824;9.562;2023-04-24T10:13:18;15.90;65.30
12426;DHT22;6277;49.824;9.562;2023-04-24T10:15:44;15.80;65.90
12426;DHT22;6277;49.824;9.562;2023-04-24T10:18:10;15.70;65.40
12426;DHT22;6277;49.824;9.562;2023-04-24T10:20:37;15.70;65.20
12426;DHT22;6277;49.824;9.562;2023-04-24T10:23:04;15.60;64.70
12426;DHT22;6277;49.824;9.562;2023-04-24T10:25:33;15.50;64.90
12426;DHT22;6277;49.824;9.562;2023-04-24T10:28:00;15.40;65.00
12426;DHT22;6277;49.824;9.562;2023-04-24T10:30:28;15.40;65.50
12426;DHT22;6277;49.824;9.562;2023-04-24T10:32:53;15.30;65.80
12426;DHT22;6277;49.824;9.562;2023-04-24T10:35:19;15.40;66.60
12426;DHT22;6277;49.824;9.562;2023-04-24T10:38:09;15.40;66.00
12426;DHT22;6277;49.824;9.562;2023-04-24T10:40:37;15.60;65.10
12426;DHT22;6277;49.824;9.562;2023-04-24T10:43:03;15.70;66.20
12426;DHT22;6277;49.824;9.562;2023-04-24T10:45:34;15.80;65.60
12426;DHT22;6277;49.824;9.562;2023-04-24T10:48:02;15.90;65.80
12426;DHT22;6277;49.824;9.562;2023-04-24T10:50:30;16.10;65.00
12426;DHT22;6277;49.824;9.562;2023-04-24T10:53:11;16.20;64.70
12426;DHT22;6277;49.824;9.562;2023-04-24T10:55:51;16.30;64.40
12426;DHT22;6277;49.824;9.562;2023-04-24T10:58:25;16.30;62.90
12426;DHT22;6277;49.824;9.562;2023-04-24T11:01:00;16.30;63.30
12426;DHT22;6277;49.824;9.562;2023-04-24T11:03:31;16.30;64.30
12426;DHT22;6277;49.824;9.562;2023-04-24T11:08:29;16.40;64.20
12426;DHT22;6277;49.824;9.562;2023-04-24T11:11:15;16.40;63.40
12426;DHT22;6277;49.824;9.562;2023-04-24T11:16:30;16.50;63.40
12426;DHT22;6277;49.824;9.562;2023-04-24T11:22:03;16.50;61.60
12426;DHT22;6277;49.824;9.562;2023-04-24T11:27:20;16.30;62.10
12426;DHT22;6277;49.824;9.562;2023-04-24T11:34:58;16.00;62.20
12426;DHT22;6277;49.824;9.562;2023-04-24T11:37:26;15.90;62.50
12426;DHT22;6277;49.824;9.562;2023-04-24T11:39:53;15.90;62.80
12426;DHT22;6277;49.824;9.562;2023-04-24T11:42:21;15.90;62.30
12426;DHT22;6277;49.824;9.562;2023-04-24T11:44:46;15.90;62.80
12426;DHT22;6277;49.824;9.562;2023-04-24T11:47:13;16.00;63.60
12426;DHT22;6277;49.824;9.562;2023-04-24T11:49:38;16.00;63.00
12426;DHT22;6277;49.824;9.562;2023-04-24T11:52:05;16.10;62.90
12426;DHT22;6277;49.824;9.562;2023-04-24T11:54:30;16.10;62.20
12426;DHT22;6277;49.824;9.562;2023-04-24T11:56:57;16.10;62.00
12426;DHT22;6277;49.824;9.562;2023-04-24T11:59:22;16.10;62.20
12426;DHT22;6277;49.824;9.562;2023-04-24T12:01:49;16.10;61.80
12426;DHT22;6277;49.824;9.562;2023-04-24T12:04:16;16.10;62.40
12426;DHT22;6277;49.824;9.562;2023-04-24T12:07:03;16.20;62.20
12426;DHT22;6277;49.824;9.562;2023-04-24T12:09:44;16.20;61.00
12426;DHT22;6277;49.824;9.562;2023-04-24T12:12:11;16.30;61.30
12426;DHT22;6277;49.824;9.562;2023-04-24T12:14:50;16.40;62.30
12426;DHT22;6277;49.824;9.562;2023-04-24T12:17:17;16.60;61.40
12426;DHT22;6277;49.824;9.562;2023-04-24T12:19:47;16.70;61.30
12426;DHT22;6277;49.824;9.562;2023-04-24T12:22:13;16.80;60.90
12426;DHT22;6277;49.824;9.562;2023-04-24T12:25:02;16.80;61.20
12426;DHT22;6277;49.824;9.562;2023-04-24T12:27:32;16.80;60.00
12426;DHT22;6277;49.824;9.562;2023-04-24T12:30:03;16.70;60.80
12426;DHT22;6277;49.824;9.562;2023-04-24T12:32:29;16.60;60.10
12426;DHT22;6277;49.824;9.562;2023-04-24T12:34:55;16.50;59.10
12426;DHT22;6277;49.824;9.562;2023-04-24T12:37:23;16.40;59.60
12426;DHT22;6277;49.824;9.562;2023-04-24T12:42:29;16.10;58.90
12426;DHT22;6277;49.824;9.562;2023-04-24T12:45:06;15.90;59.60
12426;DHT22;6277;49.824;9.562;2023-04-24T12:47:32;15.80;59.60
12426;DHT22;6277;49.824;9.562;2023-04-24T12:49:59;15.60;60.10
12426;DHT22;6277;49.824;9.562;2023-04-24T12:52:29;15.50;60.00
12426;DHT22;6277;49.824;9.562;2023-04-24T12:54:56;15.40;60.40
12426;DHT22;6277;49.824;9.562;2023-04-24T12:57:23;15.30;60.00
12426;DHT22;6277;49.824;9.562;2023-04-24T12:59:49;15.20;60.10
12426;DHT22;6277;49.824;9.562;2023-04-24T13:02:14;15.10;60.10
12426;DHT22;6277;49.824;9.562;2023-04-24T13:04:44;15.10;60.50
12426;DHT22;6277;49.824;9.562;2023-04-24T13:07:10;15.10;60.80
12426;DHT22;6277;49.824;9.562;2023-04-24T13:09:36;15.00;61.00
12426;DHT22;6277;49.824;9.562;2023-04-24T13:12:02;15.10;61.20
12426;DHT22;6277;49.824;9.562;2023-04-24T13:14:27;15.10;61.30
12426;DHT22;6277;49.824;9.562;2023-04-24T13:16:53;15.10;61.40
12426;DHT22;6277;49.824;9.562;2023-04-24T13:19:18;15.10;61.60
12426;DHT22;6277;49.824;9.562;2023-04-24T13:21:44;15.10;61.30
12426;DHT22;6277;49.824;9.562;2023-04-24T13:24:10;15.10;60.90
12426;DHT22;6277;49.824;9.562;2023-04-24T13:26:35;15.10;60.70
12426;DHT22;6277;49.824;9.562;2023-04-24T13:29:01;15.10;60.70
12426;DHT22;6277;49.824;9.562;2023-04-24T13:31:26;15.00;61.50
12426;DHT22;6277;49.824;9.562;2023-04-24T13:33:52;14.90;62.30
12426;DHT22;6277;49.824;9.562;2023-04-24T13:36:17;14.60;62.50
12426;DHT22;6277;49.824;9.562;2023-04-24T13:38:43;14.30;62.60
12426;DHT22;6277;49.824;9.562;2023-04-24T13:41:10;13.90;62.70
12426;DHT22;6277;49.824;9.562;2023-04-24T13:43:35;13.70;63.10
12426;DHT22;6277;49.824;9.562;2023-04-24T13:46:01;13.40;63.60
12426;DHT22;6277;49.824;9.562;2023-04-24T13:48:29;13.30;64.30
12426;DHT22;6277;49.824;9.562;2023-04-24T13:50:54;13.10;64.70
12426;DHT22;6277;49.824;9.562;2023-04-24T13:53:20;13.10;65.20
12426;DHT22;6277;49.824;9.562;2023-04-24T13:55:45;13.00;65.70
12426;DHT22;6277;49.824;9.562;2023-04-24T13:58:11;13.00;66.40
12426;DHT22;6277;49.824;9.562;2023-04-24T14:00:37;13.10;67.10
12426;DHT22;6277;49.824;9.562;2023-04-24T14:03:02;13.20;68.00
12426;DHT22;6277;49.824;9.562;2023-04-24T14:05:28;13.40;68.80
12426;DHT22;6277;49.824;9.562;2023-04-24T14:07:53;13.70;69.20
12426;DHT22;6277;49.824;9.562;2023-04-24T14:10:19;13.90;69.00
12426;DHT22;6277;49.824;9.562;2023-04-24T14:12:44;14.20;69.20
12426;DHT22;6277;49.824;9.562;2023-04-24T14:15:10;14.50;69.60
12426;DHT22;6277;49.824;9.562;2023-04-24T14:17:36;14.80;70.30
12426;DHT22;6277;49.824;9.562;2023-04-24T14:20:02;15.30;70.40
12426;DHT22;6277;49.824;9.562;2023-04-24T14:22:29;15.70;69.20
12426;DHT22;6277;49.824;9.562;2023-04-24T14:24:54;16.00;68.10
12426;DHT22;6277;49.824;9.562;2023-04-24T14:27:20;16.20;66.60
12426;DHT22;6277;49.824;9.562;2023-04-24T14:29:45;16.40;65.90
12426;DHT22;6277;49.824;9.562;2023-04-24T14:32:11;16.40;65.20
12426;DHT22;6277;49.824;9.562;2023-04-24T14:34:36;16.50;64.60
12426;DHT22;6277;49.824;9.562;2023-04-24T14:37:02;16.40;63.60
12426;DHT22;6277;49.824;9.562;2023-04-24T14:39:28;16.40;63.30
12426;DHT22;6277;49.824;9.562;2023-04-24T14:41:53;16.30;63.70
12426;DHT22;6277;49.824;9.562;2023-04-24T14:44:19;16.30;64.10
12426;DHT22;6277;49.824;9.562;2023-04-24T14:46:45;16.30;64.00
12426;DHT22;6277;49.824;9.562;2023-04-24T14:49:10;16.30;63.90
12426;DHT22;6277;49.824;9.562;2023-04-24T14:51:37;16.30;63.70
12426;DHT22;6277;49.824;9.562;2023-04-24T14:54:03;16.30;63.50
12426;DHT22;6277;49.824;9.562;2023-04-24T14:56:29;16.20;62.90
12426;DHT22;6277;49.824;9.562;2023-04-24T14:58:55;16.10;62.90
12426;DHT22;6277;49.824;9.562;2023-04-24T15:01:21;16.10;62.90
12426;DHT22;6277;49.824;9.562;2023-04-24T15:03:47;16.00;62.50
12426;DHT22;6277;49.824;9.562;2023-04-24T15:06:13;15.90;62.50
12426;DHT22;6277;49.824;9.562;2023-04-24T15:08:38;15.90;62.50
12426;DHT22;6277;49.824;9.562;2023-04-24T15:11:04;15.80;62.20
12426;DHT22;6277;49.824;9.562;2023-04-24T15:13:30;15.70;62.30
12426;DHT22;6277;49.824;9.562;2023-04-24T15:15:55;15.60;61.90
12426;DHT22;6277;49.824;9.562;2023-04-24T15:18:21;15.60;62.00
12426;DHT22;6277;49.824;9.562;2023-04-24T15:20:46;15.50;62.10
12426;DHT22;6277;49.824;9.562;2023-04-24T15:23:12;15.50;61.40
12426;DHT22;6277;49.824;9.562;2023-04-24T15:25:37;15.50;61.50
12426;DHT22;6277;49.824;9.562;2023-04-24T15:28:04;15.40;61.90
12426;DHT22;6277;49.824;9.562;2023-04-24T15:30:31;15.40;61.40
12426;DHT22;6277;49.824;9.562;2023-04-24T15:32:57;15.30;61.60
12426;DHT22;6277;49.824;9.562;2023-04-24T15:35:22;15.30;62.00
12426;DHT22;6277;49.824;9.562;2023-04-24T15:37:48;15.30;62.10
12426;DHT22;6277;49.824;9.562;2023-04-24T15:40:14;15.20;61.90
12426;DHT22;6277;49.824;9.562;2023-04-24T15:42:41;15.20;61.70
12426;DHT22;6277;49.824;9.562;2023-04-24T15:45:08;15.20;61.60
12426;DHT22;6277;49.824;9.562;2023-04-24T15:47:34;15.20;61.60
12426;DHT22;6277;49.824;9.562;2023-04-24T15:50:00;15.20;61.70
12426;DHT22;6277;49.824;9.562;2023-04-24T15:52:26;15.30;61.80
12426;DHT22;6277;49.824;9.562;2023-04-24T15:54:51;15.30;62.70
12426;DHT22;6277;49.824;9.562;2023-04-24T15:57:17;15.50;63.10
12426;DHT22;6277;49.824;9.562;2023-04-24T15:59:43;15.70;63.20